SBOSBO BER / EDDB
Speedbird OnlineSpeedbird Online BER / EDDB

Berlin Brandenburg Airport
12:04 21.4°C

Location Berlin, Germany
Latitude: 52.380001
Longitude: 13.5225
Local Time 12:04 on 17 Jun 2024
UTC +2 hours (Europe/Berlin)
Currency £1 equals EUR 1.19
METAR EDDB 170950Z AUTO 20008KT 170V230 CAVOK 21/12 Q1012 NOSIG
TAF TAF EDDB 170500Z 1706/1806 20004KT CAVOK BECMG 1706/1708 22009KT PROB40 TEMPO 1713/1719 24015G25KT 4500 TSRA SCT014CB BKN020 BECMG 1717/1719 22004KT
Weather As Of 17 Jun 2024 12:04
Description Clear sky
Wind 15 km/h from South (200°)
Cloud Cover 0%
Precipitation Rain: none, Snow: none
Sunrise 04:43
Sunset 21:30
NOTAM 14 active NOTAM
Rotations During the last 90 days there were
504 flights from LHR
252 flights from LCY
506 flights to LHR
256 flights to LCY
Lounges Lounge Tempelhof , Terminal 1
Web Airport Website | Wikipedia
Codes IATA: BER
ICAO: EDDB
Altitude 48 Meter / 157 Feet
Distance 922 KM / 573 Miles
from London.
Runways
RunwayLength (m)Surface
07L3600ASPH
07R4000concrete
25L4000concrete
25R3600ASPH
Radio
TypeDescriptionFrequency
Live ATC



Support Speedbird Online

© 2017-2024 Speedbird Online